Time,TemperatureF,DewpointF,PressureIn,WindDirection,WindDirectionDegrees,WindSpeedMPH,WindSpeedGustMPH,Humidity,HourlyPrecipIn,Conditions,Clouds,dailyrainin,SolarRadiationWatts/m^2,SoftwareType,DateUTC
2013-04-25 00:02:00,70.1,65.7,30.13,East,80,3.0,3.0,86,0.00,,,0.00,0,Wunderground v.1.15,2013-04-25 04:02:00,
2013-04-25 00:07:00,70.3,66.2,30.13,East,80,2.0,3.0,87,0.00,,,0.00,0,Wunderground v.1.15,2013-04-25 04:07:00,
2013-04-25 00:12:00,70.3,66.2,30.13,ENE,71,3.0,3.0,87,0.00,,,0.00,0,Wunderground v.1.15,2013-04-25 04:12:00,
2013-04-25 00:22:00,70.4,66.3,30.12,ENE,62,4.0,4.0,87,0.00,,,0.00,0,Wunderground v.1.15,2013-04-25 04:22:00,
2013-04-25 00:27:00,70.6,66.5,30.12,East,93,3.0,4.0,87,0.00,,,0.00,0,Wunderground v.1.15,2013-04-25 04:27:00,
2013-04-25 00:32:00,70.6,66.5,30.12,ENE,58,2.0,2.0,87,0.00,,,0.00,0,Wunderground v.1.15,2013-04-25 04:32:00,
2013-04-25 00:37:00,70.6,66.5,30.12,ENE,58,1.0,2.0,87,0.00,,,0.00,0,Wunderground v.1.15,2013-04-25 04:37:00,
2013-04-25 00:47:00,70.4,66.0,30.11,NE,55,1.0,3.0,86,0.00,,,0.00,0,Wunderground v.1.15,2013-04-25 04:47:00,
2013-04-25 00:52:00,70.4,66.0,30.11,NE,55,0.0,0.0,86,0.00,,,0.00,0,Wunderground v.1.15,2013-04-25 04:52:00,
2013-04-25 00:57:00,70.4,66.0,30.11,NE,55,0.0,2.0,86,0.00,,,0.00,0,Wunderground v.1.15,2013-04-25 04:57:00,
2013-04-25 01:02:00,70.3,65.9,30.11,NE,55,1.0,1.0,86,0.00,,,0.00,0,Wunderground v.1.15,2013-04-25 05:02:00,
2013-04-25 01:12:00,70.1,65.7,30.11,NE,55,0.0,0.0,86,0.00,,,0.00,0,Wunderground v.1.15,2013-04-25 05:12:00,
2013-04-25 01:17:00,69.9,65.2,30.11,NE,55,0.0,0.0,85,0.00,,,0.00,0,Wunderground v.1.15,2013-04-25 05:17:00,
2013-04-25 01:27:00,69.8,65.1,30.11,NE,55,1.0,2.0,85,0.00,,,0.00,0,Wunderground v.1.15,2013-04-25 05:27:00,
2013-04-25 01:32:00,69.6,64.9,30.10,NE,55,1.0,1.0,85,0.00,,,0.00,0,Wunderground v.1.15,2013-04-25 05:32:00,
2013-04-25 01:37:00,69.4,64.7,30.11,NE,55,0.0,1.0,85,0.00,,,0.00,0,Wunderground v.1.15,2013-04-25 05:37:00,
2013-04-25 01:47:00,69.1,64.4,30.11,NE,55,0.0,0.0,85,0.00,,,0.00,0,Wunderground v.1.15,2013-04-25 05:47:00,
2013-04-25 01:52:00,68.9,64.2,30.11,NE,55,0.0,0.0,85,0.00,,,0.00,0,Wunderground v.1.15,2013-04-25 05:52:00,
2013-04-25 01:57:00,68.8,64.1,30.11,NE,55,0.0,0.0,85,0.00,,,0.00,0,Wunderground v.1.15,2013-04-25 05:57:00,
2013-04-25 02:02:00,68.6,63.9,30.12,NE,55,0.0,0.0,85,0.00,,,0.00,0,Wunderground v.1.15,2013-04-25 06:02:00,
2013-04-25 02:12:00,68.4,63.7,30.11,NE,55,0.0,0.0,85,0.00,,,0.00,0,Wunderground v.1.15,2013-04-25 06:12:00,
2013-04-25 02:17:00,68.3,63.6,30.11,NE,55,0.0,0.0,85,0.00,,,0.00,0,Wunderground v.1.15,2013-04-25 06:17:00,
2013-04-25 02:22:00,68.1,63.4,30.11,NE,55,0.0,1.0,85,0.00,,,0.00,0,Wunderground v.1.15,2013-04-25 06:22:00,
2013-04-25 02:27:00,67.9,63.2,30.11,NE,45,0.0,1.0,85,0.00,,,0.00,0,Wunderground v.1.15,2013-04-25 06:27:00,
2013-04-25 02:37:00,67.8,63.1,30.11,NE,45,1.0,1.0,85,0.00,,,0.00,0,Wunderground v.1.15,2013-04-25 06:37:00,
2013-04-25 02:42:00,67.6,62.9,30.11,NE,45,0.0,0.0,85,0.00,,,0.00,0,Wunderground v.1.15,2013-04-25 06:42:00,
2013-04-25 02:47:00,67.6,62.9,30.12,NE,45,0.0,0.0,85,0.00,,,0.00,0,Wunderground v.1.15,2013-04-25 06:47:00,
2013-04-25 02:52:00,67.4,63.1,30.11,NE,45,0.0,0.0,86,0.00,,,0.00,0,Wunderground v.1.15,2013-04-25 06:52:00,
2013-04-25 03:02:00,67.3,63.0,30.11,NE,45,0.0,0.0,86,0.00,,,0.00,0,Wunderground v.1.15,2013-04-25 07:02:00,
2013-04-25 03:12:00,67.3,63.3,30.12,NNE,21,0.0,1.0,87,0.00,,,0.00,0,Wunderground v.1.15,2013-04-25 07:12:00,
2013-04-25 03:17:00,67.3,63.3,30.11,North,0,1.0,1.0,87,0.00,,,0.00,0,Wunderground v.1.15,2013-04-25 07:17:00,
2013-04-25 03:22:00,67.3,63.3,30.11,North,0,0.0,0.0,87,0.00,,,0.00,0,Wunderground v.1.15,2013-04-25 07:22:00,
2013-04-25 03:27:00,67.3,63.3,30.11,North,0,0.0,0.0,87,0.00,,,0.00,0,Wunderground v.1.15,2013-04-25 07:27:00,
2013-04-25 03:37:00,67.1,63.1,30.11,North,0,0.0,0.0,87,0.00,,,0.00,0,Wunderground v.1.15,2013-04-25 07:37:00,
2013-04-25 03:42:00,67.1,63.4,30.11,North,0,0.0,0.0,88,0.00,,,0.00,0,Wunderground v.1.15,2013-04-25 07:42:00,
2013-04-25 03:47:00,67.1,63.4,30.11,North,0,0.0,0.0,88,0.00,,,0.00,0,Wunderground v.1.15,2013-04-25 07:47:00,
2013-04-25 03:52:00,66.9,63.2,30.11,North,0,0.0,0.0,88,0.00,,,0.00,0,Wunderground v.1.15,2013-04-25 07:52:00,
2013-04-25 04:02:00,66.8,63.1,30.11,North,0,0.0,0.0,88,0.00,,,0.00,0,Wunderground v.1.15,2013-04-25 08:02:00,
2013-04-25 04:12:00,66.4,62.7,30.11,North,0,0.0,0.0,88,0.00,,,0.00,0,Wunderground v.1.15,2013-04-25 08:12:00,
2013-04-25 04:17:00,66.4,62.7,30.11,North,0,0.0,0.0,88,0.00,,,0.00,0,Wunderground v.1.15,2013-04-25 08:17:00,
2013-04-25 04:22:00,66.3,62.6,30.12,North,0,0.0,0.0,88,0.00,,,0.00,0,Wunderground v.1.15,2013-04-25 08:22:00,
2013-04-25 04:32:00,66.1,62.4,30.11,North,0,0.0,0.0,88,0.00,,,0.00,0,Wunderground v.1.15,2013-04-25 08:32:00,
2013-04-25 04:37:00,66.1,62.4,30.12,North,0,0.0,0.0,88,0.00,,,0.00,0,Wunderground v.1.15,2013-04-25 08:37:00,
2013-04-25 04:42:00,66.0,62.3,30.12,North,0,0.0,0.0,88,0.00,,,0.00,0,Wunderground v.1.15,2013-04-25 08:42:00,
2013-04-25 04:52:00,65.8,62.1,30.12,North,0,0.0,0.0,88,0.00,,,0.00,0,Wunderground v.1.15,2013-04-25 08:52:00,
2013-04-25 05:02:00,65.6,62.3,30.12,North,0,0.0,0.0,89,0.00,,,0.00,0,Wunderground v.1.15,2013-04-25 09:02:00,
2013-04-25 05:12:00,65.5,62.2,30.12,North,0,0.0,0.0,89,0.00,,,0.00,0,Wunderground v.1.15,2013-04-25 09:12:00,
2013-04-25 05:22:00,65.2,61.9,30.12,North,0,0.0,0.0,89,0.00,,,0.00,0,Wunderground v.1.15,2013-04-25 09:22:00,
2013-04-25 05:27:00,65.2,61.9,30.12,North,0,0.0,0.0,89,0.00,,,0.00,0,Wunderground v.1.15,2013-04-25 09:27:00,
2013-04-25 05:37:00,65.0,61.7,30.13,North,0,0.0,0.0,89,0.00,,,0.00,0,Wunderground v.1.15,2013-04-25 09:37:00,
2013-04-25 05:42:00,65.0,61.7,30.13,North,0,0.0,0.0,89,0.00,,,0.00,0,Wunderground v.1.15,2013-04-25 09:42:00,
2013-04-25 05:52:00,64.8,61.5,30.13,North,0,0.0,0.0,89,0.00,,,0.00,0,Wunderground v.1.15,2013-04-25 09:52:00,
2013-04-25 05:57:00,64.8,61.8,30.13,North,0,0.0,0.0,90,0.00,,,0.00,0,Wunderground v.1.15,2013-04-25 09:57:00,
2013-04-25 06:07:00,64.7,61.7,30.13,North,0,0.0,0.0,90,0.00,,,0.00,0,Wunderground v.1.15,2013-04-25 10:07:00,
2013-04-25 06:12:00,64.7,61.7,30.13,North,0,0.0,0.0,90,0.00,,,0.00,0,Wunderground v.1.15,2013-04-25 10:12:00,
2013-04-25 06:22:00,64.5,61.5,30.13,North,0,0.0,0.0,90,0.00,,,0.00,0,Wunderground v.1.15,2013-04-25 10:22:00,
2013-04-25 06:27:00,64.5,61.5,30.13,North,0,0.0,0.0,90,0.00,,,0.00,0,Wunderground v.1.15,2013-04-25 10:27:00,
2013-04-25 06:37:00,64.3,61.3,30.13,North,0,1.0,2.0,90,0.00,,,0.00,0,Wunderground v.1.15,2013-04-25 10:37:00,
2013-04-25 06:47:00,64.5,61.8,30.13,East,80,1.0,1.0,91,0.00,,,0.00,0,Wunderground v.1.15,2013-04-25 10:47:00,
2013-04-25 06:52:00,64.5,61.8,30.14,East,80,0.0,0.0,91,0.00,,,0.00,0,Wunderground v.1.15,2013-04-25 10:52:00,
2013-04-25 07:02:00,64.5,61.8,30.14,East,80,0.0,0.0,91,0.00,,,0.00,0,Wunderground v.1.15,2013-04-25 11:02:00,
2013-04-25 07:12:00,64.7,62.0,30.14,East,80,0.0,0.0,91,0.00,,,0.00,9,Wunderground v.1.15,2013-04-25 11:12:00,
2013-04-25 07:17:00,64.7,62.0,30.15,East,80,0.0,0.0,91,0.00,,,0.00,14,Wunderground v.1.15,2013-04-25 11:17:00,
2013-04-25 07:22:00,64.8,62.1,30.15,East,80,0.0,0.0,91,0.00,,,0.00,16,Wunderground v.1.15,2013-04-25 11:22:00,
2013-04-25 07:32:00,65.3,62.9,30.15,East,80,1.0,1.0,92,0.00,,,0.00,35,Wunderground v.1.15,2013-04-25 11:32:00,
2013-04-25 07:37:00,65.5,63.1,30.15,East,80,0.0,1.0,92,0.00,,,0.00,55,Wunderground v.1.15,2013-04-25 11:37:00,
2013-04-25 07:42:00,65.8,63.4,30.16,East,80,0.0,0.0,92,0.00,,,0.00,49,Wunderground v.1.15,2013-04-25 11:42:00,
2013-04-25 07:52:00,66.6,64.5,30.16,East,80,1.0,1.0,93,0.00,,,0.00,42,Wunderground v.1.15,2013-04-25 11:52:00,
2013-04-25 07:57:00,67.1,65.0,30.16,East,89,1.0,1.0,93,0.00,,,0.00,44,Wunderground v.1.15,2013-04-25 11:57:00,
2013-04-25 08:07:00,67.6,65.5,30.16,ESE,123,1.0,2.0,93,0.00,,,0.00,53,Wunderground v.1.15,2013-04-25 12:07:00,
2013-04-25 08:17:00,68.1,66.0,30.16,ESE,109,2.0,3.0,93,0.00,,,0.00,76,Wunderground v.1.15,2013-04-25 12:17:00,
2013-04-25 08:22:00,68.4,66.3,30.16,SE,131,1.0,3.0,93,0.00,,,0.00,81,Wunderground v.1.15,2013-04-25 12:22:00,
2013-04-25 08:32:00,69.3,66.9,30.16,SE,134,3.0,3.0,92,0.00,,,0.00,88,Wunderground v.1.15,2013-04-25 12:32:00,
2013-04-25 08:37:00,70.8,68.0,30.16,ESE,112,3.0,5.0,91,0.00,,,0.00,194,Wunderground v.1.15,2013-04-25 12:37:00,
2013-04-25 08:47:00,73.0,67.2,30.16,SE,127,3.0,5.0,82,0.00,,,0.00,338,Wunderground v.1.15,2013-04-25 12:47:00,
2013-04-25 08:52:00,74.0,66.7,30.16,SSE,158,4.0,4.0,78,0.00,,,0.00,334,Wunderground v.1.15,2013-04-25 12:52:00,
2013-04-25 08:57:00,74.4,66.0,30.17,ESE,121,3.0,4.0,75,0.00,,,0.00,387,Wunderground v.1.15,2013-04-25 12:57:00,
2013-04-25 09:07:00,75.6,65.1,30.17,SE,140,4.0,11.0,70,0.00,,,0.00,440,Wunderground v.1.15,2013-04-25 13:07:00,
2013-04-25 09:12:00,76.5,64.7,30.17,SE,140,5.0,5.0,67,0.00,,,0.00,470,Wunderground v.1.15,2013-04-25 13:12:00,
2013-04-25 09:22:00,77.2,65.0,30.17,SE,137,3.0,5.0,66,0.00,,,0.00,496,Wunderground v.1.15,2013-04-25 13:22:00,
2013-04-25 09:27:00,77.2,64.1,30.17,SSE,160,3.0,5.0,64,0.00,,,0.00,501,Wunderground v.1.15,2013-04-25 13:27:00,
2013-04-25 09:32:00,77.6,64.5,30.17,SSE,155,5.0,6.0,64,0.00,,,0.00,523,Wunderground v.1.15,2013-04-25 13:32:00,
2013-04-25 09:42:00,78.1,64.0,30.18,ESE,121,6.0,6.0,62,0.00,,,0.00,552,Wunderground v.1.15,2013-04-25 13:42:00,
2013-04-25 09:52:00,78.6,64.0,30.18,SE,134,6.0,6.0,61,0.00,,,0.00,591,Wunderground v.1.15,2013-04-25 13:52:00,
2013-04-25 09:57:00,79.0,63.9,30.18,SE,133,6.0,6.0,60,0.00,,,0.00,609,Wunderground v.1.15,2013-04-25 13:57:00,
2013-04-25 10:07:00,79.6,64.0,30.18,ESE,117,5.0,7.0,59,0.00,,,0.00,639,Wunderground v.1.15,2013-04-25 14:07:00,
2013-04-25 10:12:00,79.8,63.7,30.18,South,181,4.0,4.0,58,0.00,,,0.00,660,Wunderground v.1.15,2013-04-25 14:12:00,
2013-04-25 10:17:00,80.7,64.1,30.18,SSE,165,3.0,4.0,57,0.00,,,0.00,672,Wunderground v.1.15,2013-04-25 14:17:00,
2013-04-25 10:22:00,80.9,63.7,30.18,South,181,2.0,2.0,56,0.00,,,0.00,690,Wunderground v.1.15,2013-04-25 14:22:00,
2013-04-25 10:32:00,81.1,63.9,30.18,ESE,123,7.0,7.0,56,0.00,,,0.00,723,Wunderground v.1.15,2013-04-25 14:32:00,
2013-04-25 10:42:00,81.2,64.0,30.19,SW,219,4.0,5.0,56,0.00,,,0.00,755,Wunderground v.1.15,2013-04-25 14:42:00,
2013-04-25 10:47:00,81.6,63.3,30.19,SE,140,4.0,8.0,54,0.00,,,0.00,767,Wunderground v.1.15,2013-04-25 14:47:00,
2013-04-25 10:57:00,81.6,62.8,30.19,SSE,147,4.0,5.0,53,0.00,,,0.00,795,Wunderground v.1.15,2013-04-25 14:57:00,
2013-04-25 11:02:00,81.6,62.8,30.19,SSW,199,3.0,3.0,53,0.00,,,0.00,809,Wunderground v.1.15,2013-04-25 15:02:00,
2013-04-25 11:12:00,82.8,62.8,30.19,SE,126,2.0,2.0,51,0.00,,,0.00,846,Wunderground v.1.15,2013-04-25 15:12:00,
2013-04-25 11:17:00,82.6,63.7,30.19,SSW,210,3.0,3.0,53,0.00,,,0.00,853,Wunderground v.1.15,2013-04-25 15:17:00,
2013-04-25 11:22:00,82.8,62.8,30.19,SW,229,3.0,3.0,51,0.00,,,0.00,845,Wunderground v.1.15,2013-04-25 15:22:00,
2013-04-25 11:27:00,83.2,63.7,30.19,SSW,203,3.0,5.0,52,0.00,,,0.00,871,Wunderground v.1.15,2013-04-25 15:27:00,
2013-04-25 11:37:00,82.8,62.8,30.19,SSW,202,2.0,4.0,51,0.00,,,0.00,897,Wunderground v.1.15,2013-04-25 15:37:00,
2013-04-25 11:42:00,82.8,62.8,30.19,South,189,2.0,3.0,51,0.00,,,0.00,918,Wunderground v.1.15,2013-04-25 15:42:00,
2013-04-25 11:47:00,83.2,63.7,30.20,South,179,3.0,3.0,52,0.00,,,0.00,920,Wunderground v.1.15,2013-04-25 15:47:00,
2013-04-25 11:52:00,84.0,63.9,30.20,South,186,2.0,2.0,51,0.00,,,0.00,931,Wunderground v.1.15,2013-04-25 15:52:00,
2013-04-25 11:57:00,83.4,62.8,30.20,SSE,155,3.0,3.0,50,0.00,,,0.00,948,Wunderground v.1.15,2013-04-25 15:57:00,
2013-04-25 12:02:00,83.6,64.1,30.20,WNW,296,3.0,7.0,52,0.00,,,0.00,978,Wunderground v.1.15,2013-04-25 16:02:00,
2013-04-25 12:12:00,84.0,64.5,30.20,SW,233,4.0,6.0,52,0.00,,,0.00,1089,Wunderground v.1.15,2013-04-25 16:12:00,
2013-04-25 12:17:00,84.3,63.1,30.20,SSW,192,3.0,6.0,49,0.00,,,0.00,308,Wunderground v.1.15,2013-04-25 16:17:00,
2013-04-25 12:22:00,83.0,63.0,30.20,SW,217,3.0,3.0,51,0.00,,,0.00,215,Wunderground v.1.15,2013-04-25 16:22:00,
2013-04-25 12:32:00,82.2,63.9,30.19,SW,234,4.0,4.0,54,0.00,,,0.00,274,Wunderground v.1.15,2013-04-25 16:32:00,
2013-04-25 12:37:00,84.1,64.6,30.19,SW,236,3.0,4.0,52,0.00,,,0.00,1152,Wunderground v.1.15,2013-04-25 16:37:00,
2013-04-25 12:42:00,84.9,64.8,30.19,SW,220,2.0,2.0,51,0.00,,,0.00,1152,Wunderground v.1.15,2013-04-25 16:42:00,
2013-04-25 12:47:00,84.7,64.0,30.19,SW,232,4.0,6.0,50,0.00,,,0.00,1093,Wunderground v.1.15,2013-04-25 16:47:00,
2013-04-25 12:52:00,84.1,64.6,30.19,WSW,241,5.0,8.0,52,0.00,,,0.00,723,Wunderground v.1.15,2013-04-25 16:52:00,
2013-04-25 13:02:00,84.0,64.5,30.19,SW,229,4.0,4.0,52,0.00,,,0.00,241,Wunderground v.1.15,2013-04-25 17:02:00,
2013-04-25 13:12:00,82.0,64.2,30.19,WSW,243,2.0,5.0,55,0.00,,,0.00,239,Wunderground v.1.15,2013-04-25 17:12:00,
2013-04-25 13:17:00,81.8,64.1,30.19,SSW,199,2.0,6.0,55,0.00,,,0.00,257,Wunderground v.1.15,2013-04-25 17:17:00,
2013-04-25 13:22:00,81.8,64.6,30.18,WSW,241,4.0,5.0,56,0.00,,,0.00,304,Wunderground v.1.15,2013-04-25 17:22:00,
2013-04-25 13:27:00,83.0,64.6,30.18,SW,234,4.0,7.0,54,0.00,,,0.00,304,Wunderground v.1.15,2013-04-25 17:27:00,
2013-04-25 13:37:00,84.1,64.6,30.18,West,271,4.0,4.0,52,0.00,,,0.00,345,Wunderground v.1.15,2013-04-25 17:37:00,
2013-04-25 13:42:00,83.6,64.7,30.18,SW,234,4.0,7.0,53,0.00,,,0.00,310,Wunderground v.1.15,2013-04-25 17:42:00,
2013-04-25 13:47:00,83.0,65.2,30.18,SSW,212,5.0,7.0,55,0.00,,,0.00,359,Wunderground v.1.15,2013-04-25 17:47:00,
2013-04-25 13:52:00,84.0,65.6,30.18,SW,220,5.0,5.0,54,0.00,,,0.00,1160,Wunderground v.1.15,2013-04-25 17:52:00,
2013-04-25 14:02:00,84.5,66.0,30.18,South,186,4.0,4.0,54,0.00,,,0.00,1195,Wunderground v.1.15,2013-04-25 18:02:00,
2013-04-25 14:07:00,85.1,66.0,30.18,SSW,202,4.0,7.0,53,0.00,,,0.00,1205,Wunderground v.1.15,2013-04-25 18:07:00,
2013-04-25 14:12:00,84.9,65.3,30.18,SW,230,5.0,6.0,52,0.00,,,0.00,1205,Wunderground v.1.15,2013-04-25 18:12:00,
2013-04-25 14:22:00,83.0,66.7,30.18,SW,224,5.0,6.0,58,0.00,,,0.00,320,Wunderground v.1.15,2013-04-25 18:22:00,
2013-04-25 14:32:00,82.0,66.7,30.18,WSW,251,6.0,7.0,60,0.00,,,0.00,216,Wunderground v.1.15,2013-04-25 18:32:00,
2013-04-25 14:42:00,81.6,67.3,30.18,WSW,241,4.0,5.0,62,0.00,,,0.00,160,Wunderground v.1.15,2013-04-25 18:42:00,
2013-04-25 14:52:00,81.1,67.3,30.17,WNW,284,4.0,5.0,63,0.00,,,0.00,195,Wunderground v.1.15,2013-04-25 18:52:00,
2013-04-25 14:57:00,81.2,67.4,30.17,NW,306,5.0,6.0,63,0.00,,,0.00,283,Wunderground v.1.15,2013-04-25 18:57:00,
2013-04-25 15:02:00,82.4,68.1,30.17,WNW,298,6.0,7.0,62,0.00,,,0.00,283,Wunderground v.1.15,2013-04-25 19:02:00,
2013-04-25 15:07:00,83.2,68.3,30.17,West,268,7.0,9.0,61,0.00,,,0.00,1003,Wunderground v.1.15,2013-04-25 19:07:00,
2013-04-25 15:12:00,84.1,67.7,30.17,NW,308,6.0,6.0,58,0.00,,,0.00,1019,Wunderground v.1.15,2013-04-25 19:12:00,
2013-04-25 15:22:00,84.0,68.1,30.17,WNW,296,6.0,10.0,59,0.00,,,0.00,934,Wunderground v.1.15,2013-04-25 19:22:00,
2013-04-25 15:27:00,83.8,67.4,30.16,West,271,6.0,10.0,58,0.00,,,0.00,938,Wunderground v.1.15,2013-04-25 19:27:00,
2013-04-25 15:37:00,83.6,67.8,30.16,WNW,289,5.0,7.0,59,0.00,,,0.00,871,Wunderground v.1.15,2013-04-25 19:37:00,
2013-04-25 15:42:00,84.0,67.6,30.16,West,267,7.0,7.0,58,0.00,,,0.00,834,Wunderground v.1.15,2013-04-25 19:42:00,
2013-04-25 15:52:00,83.4,68.1,30.15,West,274,6.0,7.0,60,0.00,,,0.00,783,Wunderground v.1.15,2013-04-25 19:52:00,
2013-04-25 16:02:00,83.6,67.3,30.15,WNW,302,6.0,6.0,58,0.00,,,0.00,750,Wunderground v.1.15,2013-04-25 20:02:00,
2013-04-25 16:12:00,84.3,67.9,30.15,WNW,292,6.0,8.0,58,0.00,,,0.00,711,Wunderground v.1.15,2013-04-25 20:12:00,
2013-04-25 16:22:00,84.0,67.1,30.15,NW,323,6.0,6.0,57,0.00,,,0.00,679,Wunderground v.1.15,2013-04-25 20:22:00,
2013-04-25 16:32:00,83.4,66.6,30.15,North,352,7.0,8.0,57,0.00,,,0.00,653,Wunderground v.1.15,2013-04-25 20:32:00,
2013-04-25 16:37:00,83.4,66.6,30.15,West,267,7.0,8.0,57,0.00,,,0.00,637,Wunderground v.1.15,2013-04-25 20:37:00,
2013-04-25 16:47:00,83.0,67.2,30.15,WNW,284,7.0,7.0,59,0.00,,,0.00,602,Wunderground v.1.15,2013-04-25 20:47:00,
2013-04-25 16:52:00,83.4,68.1,30.15,WNW,301,6.0,6.0,60,0.00,,,0.00,586,Wunderground v.1.15,2013-04-25 20:52:00,
2013-04-25 17:02:00,82.6,67.8,30.15,SW,219,6.0,6.0,61,0.00,,,0.00,561,Wunderground v.1.15,2013-04-25 21:02:00,
2013-04-25 17:12:00,82.8,68.0,30.15,NW,318,6.0,7.0,61,0.00,,,0.00,531,Wunderground v.1.15,2013-04-25 21:12:00,
2013-04-25 17:17:00,82.6,67.8,30.15,NW,308,6.0,7.0,61,0.00,,,0.00,503,Wunderground v.1.15,2013-04-25 21:17:00,
2013-04-25 17:27:00,82.2,67.4,30.15,NW,326,8.0,8.0,61,0.00,,,0.00,394,Wunderground v.1.15,2013-04-25 21:27:00,
2013-04-25 17:37:00,82.0,67.7,30.15,WNW,289,7.0,9.0,62,0.00,,,0.00,512,Wunderground v.1.15,2013-04-25 21:37:00,
2013-04-25 17:47:00,81.4,68.1,30.15,West,274,7.0,8.0,64,0.00,,,0.00,399,Wunderground v.1.15,2013-04-25 21:47:00,
2013-04-25 17:52:00,81.2,67.9,30.15,NW,311,6.0,11.0,64,0.00,,,0.00,398,Wunderground v.1.15,2013-04-25 21:52:00,
2013-04-25 18:02:00,80.7,67.8,30.15,NW,306,7.0,7.0,65,0.00,,,0.00,345,Wunderground v.1.15,2013-04-25 22:02:00,
2013-04-25 18:12:00,80.1,67.7,30.15,NW,323,7.0,7.0,66,0.00,,,0.00,283,Wunderground v.1.15,2013-04-25 22:12:00,
2013-04-25 18:22:00,79.8,67.9,30.14,WNW,302,7.0,7.0,67,0.00,,,0.00,208,Wunderground v.1.15,2013-04-25 22:22:00,
2013-04-25 18:27:00,79.8,67.9,30.14,NW,311,7.0,7.0,67,0.00,,,0.00,266,Wunderground v.1.15,2013-04-25 22:27:00,
2013-04-25 18:37:00,79.9,68.0,30.14,NW,311,5.0,6.0,67,0.00,,,0.00,257,Wunderground v.1.15,2013-04-25 22:37:00,
2013-04-25 18:42:00,79.8,67.9,30.14,NNW,343,6.0,7.0,67,0.00,,,0.00,252,Wunderground v.1.15,2013-04-25 22:42:00,
2013-04-25 18:52:00,79.4,67.5,30.14,NW,318,7.0,7.0,67,0.00,,,0.00,183,Wunderground v.1.15,2013-04-25 22:52:00,
2013-04-25 19:02:00,79.0,66.7,30.14,NW,323,5.0,11.0,66,0.00,,,0.00,39,Wunderground v.1.15,2013-04-25 23:02:00,
2013-04-25 19:12:00,78.3,66.4,30.14,NNW,336,5.0,6.0,67,0.00,,,0.00,39,Wunderground v.1.15,2013-04-25 23:12:00,
2013-04-25 19:22:00,77.7,65.9,30.15,NW,305,5.0,6.0,67,0.00,,,0.00,46,Wunderground v.1.15,2013-04-25 23:22:00,
2013-04-25 19:32:00,77.4,65.6,30.15,NNW,330,4.0,7.0,67,0.00,,,0.00,37,Wunderground v.1.15,2013-04-25 23:32:00,
2013-04-25 19:37:00,77.2,65.8,30.15,NW,323,5.0,7.0,68,0.00,,,0.00,28,Wunderground v.1.15,2013-04-25 23:37:00,
2013-04-25 19:47:00,76.5,64.7,30.15,NNW,328,5.0,5.0,67,0.00,,,0.00,14,Wunderground v.1.15,2013-04-25 23:47:00,
2013-04-25 19:57:00,76.0,64.2,30.16,North,0,4.0,8.0,67,0.00,,,0.00,7,Wunderground v.1.15,2013-04-25 23:57:00,
2013-04-25 20:02:00,75.8,64.1,30.16,WNW,301,5.0,6.0,67,0.00,,,0.00,0,Wunderground v.1.15,2013-04-26 00:02:00,
2013-04-25 20:12:00,75.4,63.7,30.16,NW,311,5.0,6.0,67,0.00,,,0.00,0,Wunderground v.1.15,2013-04-26 00:12:00,
2013-04-25 20:22:00,75.1,63.8,30.16,North,350,3.0,3.0,68,0.00,,,0.00,0,Wunderground v.1.15,2013-04-26 00:22:00,
2013-04-25 20:27:00,75.1,63.8,30.16,NNW,344,3.0,3.0,68,0.00,,,0.00,0,Wunderground v.1.15,2013-04-26 00:27:00,
2013-04-25 20:37:00,74.9,63.6,30.16,NW,318,2.0,3.0,68,0.00,,,0.00,0,Wunderground v.1.15,2013-04-26 00:37:00,
2013-04-25 20:42:00,74.7,63.9,30.17,NNW,347,2.0,2.0,69,0.00,,,0.00,0,Wunderground v.1.15,2013-04-26 00:42:00,
2013-04-25 20:52:00,74.6,63.8,30.17,NNW,332,2.0,2.0,69,0.00,,,0.00,0,Wunderground v.1.15,2013-04-26 00:52:00,
2013-04-25 20:57:00,74.4,64.0,30.17,North,352,2.0,2.0,70,0.00,,,0.00,0,Wunderground v.1.15,2013-04-26 00:57:00,
2013-04-25 21:07:00,74.2,63.8,30.17,North,353,2.0,3.0,70,0.00,,,0.00,0,Wunderground v.1.15,2013-04-26 01:07:00,
2013-04-25 21:12:00,74.0,64.0,30.17,NNW,342,1.0,1.0,71,0.00,,,0.00,0,Wunderground v.1.15,2013-04-26 01:12:00,
2013-04-25 21:22:00,73.9,63.9,30.17,North,352,2.0,2.0,71,0.00,,,0.00,0,Wunderground v.1.15,2013-04-26 01:22:00,
2013-04-25 21:27:00,73.7,63.7,30.17,North,349,2.0,2.0,71,0.00,,,0.00,0,Wunderground v.1.15,2013-04-26 01:27:00,
2013-04-25 21:32:00,73.5,63.9,30.18,NW,316,1.0,2.0,72,0.00,,,0.00,0,Wunderground v.1.15,2013-04-26 01:32:00,
2013-04-25 21:42:00,73.3,64.1,30.18,NNW,336,2.0,3.0,73,0.00,,,0.00,0,Wunderground v.1.15,2013-04-26 01:42:00,
2013-04-25 21:52:00,73.2,64.4,30.19,NW,309,2.0,2.0,74,0.00,,,0.00,0,Wunderground v.1.15,2013-04-26 01:52:00,
2013-04-25 21:57:00,73.2,64.4,30.19,NNW,347,2.0,2.0,74,0.00,,,0.00,0,Wunderground v.1.15,2013-04-26 01:57:00,
2013-04-25 22:07:00,73.0,64.6,30.19,NNW,336,2.0,2.0,75,0.00,,,0.00,0,Wunderground v.1.15,2013-04-26 02:07:00,
2013-04-25 22:17:00,73.0,64.6,30.19,NNW,339,1.0,2.0,75,0.00,,,0.00,0,Wunderground v.1.15,2013-04-26 02:17:00,
2013-04-25 22:22:00,72.8,64.4,30.19,NW,322,1.0,4.0,75,0.00,,,0.00,0,Wunderground v.1.15,2013-04-26 02:22:00,
2013-04-25 22:27:00,72.8,64.4,30.19,NNW,344,2.0,4.0,75,0.00,,,0.00,0,Wunderground v.1.15,2013-04-26 02:27:00,
2013-04-25 22:32:00,72.8,64.8,30.19,NNW,329,2.0,2.0,76,0.00,,,0.00,0,Wunderground v.1.15,2013-04-26 02:32:00,
2013-04-25 22:42:00,72.7,64.7,30.19,NNW,347,1.0,1.0,76,0.00,,,0.00,0,Wunderground v.1.15,2013-04-26 02:42:00,
2013-04-25 22:52:00,72.5,64.5,30.20,NNW,332,1.0,1.0,76,0.00,,,0.00,0,Wunderground v.1.15,2013-04-26 02:52:00,
2013-04-25 23:02:00,72.3,64.7,30.20,North,350,1.0,1.0,77,0.00,,,0.00,0,Wunderground v.1.15,2013-04-26 03:02:00,
2013-04-25 23:12:00,72.1,64.5,30.19,North,350,1.0,1.0,77,0.00,,,0.00,0,Wunderground v.1.15,2013-04-26 03:12:00,
2013-04-25 23:17:00,72.1,64.5,30.20,North,350,1.0,1.0,77,0.00,,,0.00,0,Wunderground v.1.15,2013-04-26 03:17:00,
2013-04-25 23:27:00,71.8,64.6,30.20,North,350,0.0,1.0,78,0.00,,,0.00,0,Wunderground v.1.15,2013-04-26 03:27:00,
2013-04-25 23:37:00,71.8,64.6,30.20,North,353,1.0,2.0,78,0.00,,,0.00,0,Wunderground v.1.15,2013-04-26 03:37:00,
2013-04-25 23:47:00,71.6,64.7,30.20,North,350,1.0,2.0,79,0.00,,,0.00,0,Wunderground v.1.15,2013-04-26 03:47:00,
2013-04-25 23:52:00,71.6,64.7,30.20,North,352,1.0,2.0,79,0.00,,,0.00,0,Wunderground v.1.15,2013-04-26 03:52:00,